Time;durP1;ratioP1;P1;durP2;ratioP2;P2;SDS_P1;SDS_P2;PMS_P1;PMS_P2;Temp;Humidity;BMP_temperature;BMP_pressure;BME280_temperature;BME280_humidity;BME280_pressure;Samples;Min_cycle;Max_cycle;Signal;HPM_P1;HPM_P2
2022/11/13 00:00:41;;;;;;;;;;;5.40;99.90;;;;;;5082838;28;19924;-72
2022/11/13 00:03:28;;;;;;;;;;;5.50;99.90;;;;;;5078318;28;19931;-70
2022/11/13 00:06:14;;;;;;;;;;;5.50;99.90;;;;;;5085021;28;20657;-71
2022/11/13 00:08:59;;;;;;;;;;;5.50;99.90;;;;;;5092124;28;19930;-71
2022/11/13 00:11:44;;;;;;;;;;;5.50;99.90;;;;;;5078800;28;20444;-72
2022/11/13 00:14:29;;;;;;;;;;;5.70;99.90;;;;;;5077475;28;19935;-71
2022/11/13 00:17:14;;;;;;;;;;;5.80;99.90;;;;;;5084973;28;20007;-72
2022/11/13 00:20:00;;;;;;;;;;;5.70;99.90;;;;;;5085440;28;20105;-72
2022/11/13 00:22:45;;;;;;;;;;;5.70;99.90;;;;;;5077448;28;19924;-72
2022/11/13 00:25:34;;;;;;;;;;;5.90;99.90;;;;;;5058763;28;19924;-71
2022/11/13 00:28:19;;;;;;;;;;;5.90;99.90;;;;;;5074695;28;19931;-71
2022/11/13 00:31:05;;;;;;;;;;;5.90;99.90;;;;;;5052653;28;20450;-72
2022/11/13 00:33:51;;;;;;;;;;;5.80;99.90;;;;;;5078505;28;19932;-71
2022/11/13 00:36:56;;;;;;;;;;;5.70;99.90;;;;;;5076393;28;19931;-72
2022/11/13 00:39:41;;;;;;;;;;;5.70;99.90;;;;;;5074163;28;19939;-71
2022/11/13 00:42:27;;;;;;;;;;;5.80;99.90;;;;;;5073506;28;20616;-71
2022/11/13 00:45:13;;;;;;;;;;;5.90;99.90;;;;;;5073568;28;19951;-71
2022/11/13 00:47:57;;;;;;;;;;;6.00;99.90;;;;;;5065491;28;20357;-71
2022/11/13 00:50:43;;;;;;;;;;;5.90;99.90;;;;;;5076434;28;19931;-71
2022/11/13 00:53:28;;;;;;;;;;;5.90;99.90;;;;;;5089627;28;19930;-71
2022/11/13 00:56:14;;;;;;;;;;;5.70;99.90;;;;;;5085765;28;20589;-71
2022/11/13 00:58:58;;;;;;;;;;;5.50;99.90;;;;;;5093224;28;19930;-71
2022/11/13 01:01:44;;;;;;;;;;;5.60;99.90;;;;;;5076203;28;20006;-71
2022/11/13 01:04:29;;;;;;;;;;;5.50;99.90;;;;;;5072844;28;19935;-72
2022/11/13 01:07:15;;;;;;;;;;;5.50;99.90;;;;;;5072605;28;19931;-71
2022/11/13 01:10:00;;;;;;;;;;;5.60;99.90;;;;;;5070503;28;19951;-71
2022/11/13 01:12:45;;;;;;;;;;;5.70;99.90;;;;;;5095915;28;19932;-71
2022/11/13 01:15:31;;;;;;;;;;;5.50;99.90;;;;;;5089318;28;19932;-71
2022/11/13 01:18:16;;;;;;;;;;;5.60;99.90;;;;;;5095257;28;20269;-71
2022/11/13 01:21:05;;;;;;;;;;;5.60;99.90;;;;;;5089388;28;19935;-72
2022/11/13 01:23:50;;;;;;;;;;;5.50;99.90;;;;;;5093459;28;20569;-72
2022/11/13 01:26:36;;;;;;;;;;;5.60;99.90;;;;;;5082661;28;20101;-73
2022/11/13 01:29:21;;;;;;;;;;;5.70;99.90;;;;;;5097272;27;19939;-69
2022/11/13 01:32:06;;;;;;;;;;;5.70;99.90;;;;;;5084001;28;19958;-73
2022/11/13 01:34:51;;;;;;;;;;;5.60;99.90;;;;;;5095613;28;19975;-71
2022/11/13 01:37:37;;;;;;;;;;;5.60;99.90;;;;;;5084841;28;19932;-73
2022/11/13 01:40:22;;;;;;;;;;;5.70;99.90;;;;;;5084616;28;19974;-70
2022/11/13 01:43:23;;;;;;;;;;;5.80;99.90;;;;;;5084371;28;19931;-72
2022/11/13 01:46:14;;;;;;;;;;;5.80;99.90;;;;;;5088747;28;19958;-72
2022/11/13 01:49:02;;;;;;;;;;;5.80;99.90;;;;;;5076492;28;19923;-71
2022/11/13 01:52:09;;;;;;;;;;;5.70;99.90;;;;;;5088385;28;20340;-71
2022/11/13 01:54:56;;;;;;;;;;;5.80;99.90;;;;;;5092861;28;20337;-71
2022/11/13 01:57:41;;;;;;;;;;;5.90;99.90;;;;;;5080828;28;20069;-70
2022/11/13 02:00:27;;;;;;;;;;;6.00;99.90;;;;;;5080781;28;20445;-71
2022/11/13 02:03:12;;;;;;;;;;;5.90;99.90;;;;;;5081510;28;19938;-71
2022/11/13 02:05:57;;;;;;;;;;;5.80;99.90;;;;;;5074905;28;20300;-72
2022/11/13 02:08:43;;;;;;;;;;;5.70;99.90;;;;;;5089823;28;20986;-72
2022/11/13 02:11:28;;;;;;;;;;;5.60;99.90;;;;;;5079756;28;19985;-71
2022/11/13 02:14:14;;;;;;;;;;;5.60;99.90;;;;;;5095446;28;19935;-71
2022/11/13 02:17:03;;;;;;;;;;;5.70;99.90;;;;;;5082551;28;19932;-72
2022/11/13 02:19:50;;;;;;;;;;;5.80;99.90;;;;;;5085019;28;20035;-71
2022/11/13 02:22:41;;;;;;;;;;;5.80;99.90;;;;;;5090276;28;19981;-71
2022/11/13 02:25:27;;;;;;;;;;;5.70;99.90;;;;;;5077652;28;19924;-72
2022/11/13 02:28:12;;;;;;;;;;;5.60;99.90;;;;;;5086147;28;20277;-70
2022/11/13 02:31:04;;;;;;;;;;;5.40;99.90;;;;;;5086268;28;19931;-71
2022/11/13 02:33:49;;;;;;;;;;;5.40;99.90;;;;;;5083986;28;19985;-71
2022/11/13 02:36:35;;;;;;;;;;;5.60;99.90;;;;;;5077248;28;19931;-72
2022/11/13 02:39:20;;;;;;;;;;;5.60;99.90;;;;;;5090872;28;19931;-71
2022/11/13 02:42:05;;;;;;;;;;;5.60;99.90;;;;;;5080848;28;20317;-71
2022/11/13 02:44:51;;;;;;;;;;;5.50;99.90;;;;;;5089158;28;19931;-72
2022/11/13 02:47:36;;;;;;;;;;;5.40;99.90;;;;;;5084947;28;19950;-72
2022/11/13 02:50:21;;;;;;;;;;;5.30;99.90;;;;;;5069902;28;19970;-70
2022/11/13 02:53:06;;;;;;;;;;;5.30;99.90;;;;;;5095817;28;19930;-70
2022/11/13 02:55:52;;;;;;;;;;;5.20;99.90;;;;;;5089536;28;19930;-71
2022/11/13 02:58:37;;;;;;;;;;;5.20;99.90;;;;;;5075224;28;19930;-71
2022/11/13 03:01:22;;;;;;;;;;;5.20;99.90;;;;;;5087087;28;19968;-71
2022/11/13 03:04:08;;;;;;;;;;;5.20;99.90;;;;;;5074426;28;20062;-71
2022/11/13 03:06:53;;;;;;;;;;;5.10;99.90;;;;;;5078146;28;19932;-72
2022/11/13 03:09:39;;;;;;;;;;;5.20;99.90;;;;;;5074985;28;20005;-71
2022/11/13 03:12:24;;;;;;;;;;;5.20;99.90;;;;;;5077265;28;20144;-71
2022/11/13 03:15:09;;;;;;;;;;;5.20;99.90;;;;;;5072779;28;19931;-71
2022/11/13 03:17:54;;;;;;;;;;;5.20;99.90;;;;;;5088082;28;20024;-70
2022/11/13 03:20:40;;;;;;;;;;;5.20;99.90;;;;;;5075928;28;20430;-71
2022/11/13 03:23:27;;;;;;;;;;;5.10;99.90;;;;;;5082241;28;20024;-72
2022/11/13 03:26:14;;;;;;;;;;;5.20;99.90;;;;;;5067190;28;19945;-71
2022/11/13 03:28:59;;;;;;;;;;;5.00;99.90;;;;;;5084567;28;19969;-71
2022/11/13 03:31:44;;;;;;;;;;;5.00;99.90;;;;;;5082947;28;19931;-71
2022/11/13 03:34:29;;;;;;;;;;;5.00;99.90;;;;;;5078477;28;19989;-71
2022/11/13 03:37:15;;;;;;;;;;;5.00;99.90;;;;;;5090711;28;19930;-72
2022/11/13 03:40:00;;;;;;;;;;;4.80;99.90;;;;;;5089015;28;20499;-71
2022/11/13 03:42:45;;;;;;;;;;;5.00;99.90;;;;;;5072300;28;20520;-71
2022/11/13 03:45:31;;;;;;;;;;;4.90;99.90;;;;;;5074998;28;19931;-72
2022/11/13 03:48:19;;;;;;;;;;;4.80;99.90;;;;;;5085681;28;19981;-72
2022/11/13 03:51:04;;;;;;;;;;;4.70;99.90;;;;;;5090170;28;19935;-71
2022/11/13 03:53:49;;;;;;;;;;;4.60;99.90;;;;;;5079166;28;20060;-73
2022/11/13 03:56:34;;;;;;;;;;;4.70;99.90;;;;;;5082913;28;20586;-70
2022/11/13 03:59:19;;;;;;;;;;;4.60;99.90;;;;;;5087163;28;19931;-71
2022/11/13 04:02:05;;;;;;;;;;;4.70;99.90;;;;;;5086539;28;19980;-71
2022/11/13 04:04:50;;;;;;;;;;;4.80;99.90;;;;;;5086746;28;19959;-72
2022/11/13 04:07:35;;;;;;;;;;;4.80;99.90;;;;;;5078449;28;19938;-71
2022/11/13 04:10:20;;;;;;;;;;;4.70;99.90;;;;;;5088919;28;19924;-72
2022/11/13 04:13:05;;;;;;;;;;;4.70;99.90;;;;;;5094872;28;19931;-71
2022/11/13 04:15:51;;;;;;;;;;;4.70;99.90;;;;;;5080667;28;19955;-71
2022/11/13 04:18:36;;;;;;;;;;;4.60;99.90;;;;;;5084086;28;20484;-72
2022/11/13 04:21:21;;;;;;;;;;;4.70;99.90;;;;;;5093770;28;19935;-71
2022/11/13 04:24:06;;;;;;;;;;;4.60;99.90;;;;;;5079617;28;20022;-72
2022/11/13 04:26:52;;;;;;;;;;;4.70;99.90;;;;;;5075958;28;19938;-71
2022/11/13 04:29:37;;;;;;;;;;;4.70;99.90;;;;;;5081219;28;19930;-71
2022/11/13 04:32:22;;;;;;;;;;;4.80;99.90;;;;;;5087124;28;19931;-72
2022/11/13 04:35:07;;;;;;;;;;;4.80;99.90;;;;;;5084178;28;20411;-71
2022/11/13 04:37:53;;;;;;;;;;;5.00;99.90;;;;;;5082958;28;20500;-71
2022/11/13 04:40:38;;;;;;;;;;;5.00;99.90;;;;;;5080586;28;20061;-71
2022/11/13 04:43:23;;;;;;;;;;;4.70;99.90;;;;;;5087762;28;19938;-72
2022/11/13 04:46:09;;;;;;;;;;;4.60;99.90;;;;;;5089623;28;19932;-70
2022/11/13 04:48:54;;;;;;;;;;;4.50;99.90;;;;;;5083661;28;20585;-72
2022/11/13 04:51:39;;;;;;;;;;;4.60;99.90;;;;;;5085202;28;19992;-70
2022/11/13 04:54:24;;;;;;;;;;;4.70;99.90;;;;;;5078836;28;20105;-71
2022/11/13 04:57:13;;;;;;;;;;;4.60;99.90;;;;;;5081413;28;19954;-71
2022/11/13 04:59:57;;;;;;;;;;;4.60;99.90;;;;;;5074619;28;20123;-71
2022/11/13 05:02:43;;;;;;;;;;;4.70;99.90;;;;;;5079955;28;19958;-71
2022/11/13 05:05:28;;;;;;;;;;;4.80;99.90;;;;;;5081884;28;20014;-70
2022/11/13 05:08:13;;;;;;;;;;;4.70;99.90;;;;;;5081174;28;20013;-71
2022/11/13 05:10:59;;;;;;;;;;;4.50;99.90;;;;;;5085912;28;19931;-69
2022/11/13 05:13:45;;;;;;;;;;;4.50;99.90;;;;;;5076706;28;20096;-70
2022/11/13 05:16:30;;;;;;;;;;;4.40;99.90;;;;;;5087020;28;19931;-72
2022/11/13 05:19:15;;;;;;;;;;;4.60;99.90;;;;;;5079377;28;19954;-72
2022/11/13 05:22:01;;;;;;;;;;;4.80;99.90;;;;;;5078119;28;20095;-71
2022/11/13 05:24:46;;;;;;;;;;;4.90;99.90;;;;;;5058328;28;20077;-71
2022/11/13 05:27:31;;;;;;;;;;;5.00;99.90;;;;;;5076235;28;19930;-71
2022/11/13 05:30:16;;;;;;;;;;;5.00;99.90;;;;;;5077876;28;19974;-71
2022/11/13 05:33:01;;;;;;;;;;;5.00;99.90;;;;;;5079644;28;19934;-70
2022/11/13 05:35:47;;;;;;;;;;;5.10;99.90;;;;;;5080041;28;19931;-72
2022/11/13 05:38:32;;;;;;;;;;;5.20;99.90;;;;;;5077964;28;20036;-71
2022/11/13 05:41:19;;;;;;;;;;;5.10;99.90;;;;;;5077235;28;19932;-70
2022/11/13 05:44:04;;;;;;;;;;;5.00;99.90;;;;;;5077877;28;20290;-70
2022/11/13 05:46:49;;;;;;;;;;;4.90;99.90;;;;;;5077202;28;19931;-71
2022/11/13 05:49:34;;;;;;;;;;;4.90;99.90;;;;;;5077013;28;19977;-70
2022/11/13 05:52:19;;;;;;;;;;;4.80;99.90;;;;;;5082286;28;19993;-70
2022/11/13 05:55:05;;;;;;;;;;;4.70;99.90;;;;;;5077492;28;19935;-70
2022/11/13 05:57:50;;;;;;;;;;;4.70;99.90;;;;;;5082133;28;19930;-71
2022/11/13 06:00:35;;;;;;;;;;;4.70;99.90;;;;;;5079456;28;19992;-71
2022/11/13 06:03:20;;;;;;;;;;;4.70;99.90;;;;;;5077866;28;19931;-70
2022/11/13 06:06:07;;;;;;;;;;;4.70;99.90;;;;;;5082238;28;19990;-71
2022/11/13 06:08:52;;;;;;;;;;;4.70;99.90;;;;;;5072621;28;19972;-70
2022/11/13 06:11:38;;;;;;;;;;;4.60;99.90;;;;;;5072304;28;19932;-70
2022/11/13 06:14:23;;;;;;;;;;;4.50;99.90;;;;;;5079745;28;19939;-70
2022/11/13 06:17:09;;;;;;;;;;;4.50;99.90;;;;;;5083147;28;20045;-70
2022/11/13 06:19:54;;;;;;;;;;;4.40;99.90;;;;;;5075780;28;19932;-70
2022/11/13 06:22:39;;;;;;;;;;;4.20;99.90;;;;;;5076538;28;19933;-71
2022/11/13 06:25:24;;;;;;;;;;;4.00;99.90;;;;;;5083164;28;20040;-71
2022/11/13 06:28:10;;;;;;;;;;;4.20;99.90;;;;;;5085555;28;19931;-70
2022/11/13 06:30:55;;;;;;;;;;;4.10;99.90;;;;;;5075489;28;19957;-70
2022/11/13 06:33:41;;;;;;;;;;;4.10;99.90;;;;;;5084627;28;20016;-71
2022/11/13 06:36:30;;;;;;;;;;;4.10;99.90;;;;;;5085643;28;20516;-70
2022/11/13 06:39:15;;;;;;;;;;;4.30;99.90;;;;;;5085991;28;19934;-70
2022/11/13 06:42:00;;;;;;;;;;;4.40;99.90;;;;;;5078458;28;20572;-69
2022/11/13 06:44:45;;;;;;;;;;;4.40;99.90;;;;;;5082641;28;19935;-70
2022/11/13 06:47:31;;;;;;;;;;;4.40;99.90;;;;;;5086199;28;19947;-70
2022/11/13 06:50:16;;;;;;;;;;;4.40;99.90;;;;;;5085730;28;19924;-70
2022/11/13 06:53:01;;;;;;;;;;;4.40;99.90;;;;;;5080020;28;20373;-70
2022/11/13 06:55:48;;;;;;;;;;;4.40;99.90;;;;;;5076919;28;19976;-70
2022/11/13 06:58:34;;;;;;;;;;;4.40;99.90;;;;;;5086868;28;19954;-69
2022/11/13 07:01:20;;;;;;;;;;;4.40;99.90;;;;;;5081140;28;19931;-70
2022/11/13 07:04:06;;;;;;;;;;;4.50;99.90;;;;;;5084106;28;20000;-70
2022/11/13 07:06:51;;;;;;;;;;;4.50;99.90;;;;;;5073620;28;19931;-71
2022/11/13 07:09:36;;;;;;;;;;;4.50;99.90;;;;;;5083949;28;19928;-69
2022/11/13 07:12:21;;;;;;;;;;;4.60;99.90;;;;;;5083367;28;19982;-71
2022/11/13 07:15:06;;;;;;;;;;;4.70;99.90;;;;;;5065825;28;19932;-70
2022/11/13 07:17:51;;;;;;;;;;;4.70;99.90;;;;;;5091057;28;20503;-72
2022/11/13 07:20:36;;;;;;;;;;;4.80;99.90;;;;;;5091025;28;19935;-69
2022/11/13 07:23:22;;;;;;;;;;;4.80;99.90;;;;;;5098660;28;19930;-68
2022/11/13 07:26:10;;;;;;;;;;;4.90;99.90;;;;;;5098165;28;19985;-71
2022/11/13 07:28:56;;;;;;;;;;;4.90;99.90;;;;;;5089740;28;19935;-70
2022/11/13 07:31:41;;;;;;;;;;;4.90;99.90;;;;;;5085043;28;20312;-71
2022/11/13 07:34:26;;;;;;;;;;;4.90;99.90;;;;;;5070721;28;19930;-71
2022/11/13 07:37:11;;;;;;;;;;;5.00;99.90;;;;;;5087732;28;19970;-71
2022/11/13 07:39:56;;;;;;;;;;;5.00;99.90;;;;;;5077716;28;20016;-70
2022/11/13 07:42:42;;;;;;;;;;;5.00;99.90;;;;;;5082151;28;19930;-71
2022/11/13 07:45:27;;;;;;;;;;;5.20;99.90;;;;;;5088127;28;20289;-71
2022/11/13 07:48:12;;;;;;;;;;;5.30;99.90;;;;;;5082263;28;19931;-71
2022/11/13 07:50:58;;;;;;;;;;;5.50;99.90;;;;;;5073281;28;19958;-70
2022/11/13 07:53:44;;;;;;;;;;;5.70;99.90;;;;;;5076047;28;20566;-70
2022/11/13 07:56:29;;;;;;;;;;;5.90;99.90;;;;;;5083733;28;19932;-71
2022/11/13 07:59:14;;;;;;;;;;;6.10;99.90;;;;;;5086778;28;19946;-71
2022/11/13 08:02:00;;;;;;;;;;;6.30;99.90;;;;;;5078750;28;19977;-71
2022/11/13 08:04:45;;;;;;;;;;;6.50;99.90;;;;;;5076811;28;19935;-72
2022/11/13 08:07:30;;;;;;;;;;;6.60;99.90;;;;;;5077730;28;19930;-71
2022/11/13 08:10:16;;;;;;;;;;;6.80;99.90;;;;;;5085237;28;19977;-70
2022/11/13 08:13:05;;;;;;;;;;;7.10;99.90;;;;;;5060418;28;20435;-71
2022/11/13 08:15:50;;;;;;;;;;;7.40;99.90;;;;;;5076970;28;20041;-71
2022/11/13 08:18:35;;;;;;;;;;;7.60;99.90;;;;;;5096195;28;19958;-71
2022/11/13 08:21:20;;;;;;;;;;;8.00;99.90;;;;;;5090907;28;20019;-72
2022/11/13 08:24:05;;;;;;;;;;;8.30;99.90;;;;;;5094167;28;19955;-72
2022/11/13 08:26:51;;;;;;;;;;;8.50;99.90;;;;;;5074378;28;19977;-71
2022/11/13 08:29:36;;;;;;;;;;;8.50;99.90;;;;;;5089009;28;19946;-71
2022/11/13 08:32:21;;;;;;;;;;;8.50;99.90;;;;;;5081360;28;19931;-70
2022/11/13 08:35:06;;;;;;;;;;;8.50;99.90;;;;;;5078052;28;19931;-74
2022/11/13 08:37:51;;;;;;;;;;;8.60;99.90;;;;;;5078532;28;19931;-75
2022/11/13 08:40:37;;;;;;;;;;;8.70;99.90;;;;;;5094116;28;19930;-75
2022/11/13 08:43:22;;;;;;;;;;;8.80;99.90;;;;;;5093714;28;19931;-74
2022/11/13 08:46:07;;;;;;;;;;;9.10;99.90;;;;;;5085551;28;19949;-75
2022/11/13 08:48:52;;;;;;;;;;;9.50;99.90;;;;;;5082600;28;20008;-74
2022/11/13 08:51:37;;;;;;;;;;;10.10;99.90;;;;;;5072947;28;19938;-75
2022/11/13 08:54:22;;;;;;;;;;;10.90;99.90;;;;;;5091522;28;19930;-74
2022/11/13 08:57:08;;;;;;;;;;;11.70;99.90;;;;;;5081447;28;20820;-74
2022/11/13 08:59:53;;;;;;;;;;;12.30;99.90;;;;;;5083807;28;19931;-75
2022/11/13 09:02:38;;;;;;;;;;;12.70;99.90;;;;;;5066443;28;19931;-76
2022/11/13 09:05:23;;;;;;;;;;;13.00;99.90;;;;;;5084669;28;19931;-76
2022/11/13 09:08:09;;;;;;;;;;;13.30;99.90;;;;;;5077573;28;19932;-75
2022/11/13 09:10:54;;;;;;;;;;;13.30;99.90;;;;;;5084455;28;19995;-75
2022/11/13 09:13:39;;;;;;;;;;;13.80;99.90;;;;;;5083714;28;20317;-75
2022/11/13 09:16:30;;;;;;;;;;;14.00;99.90;;;;;;5093785;28;19931;-74
2022/11/13 09:19:16;;;;;;;;;;;14.20;99.90;;;;;;5094897;28;20012;-75
2022/11/13 09:22:01;;;;;;;;;;;14.40;99.90;;;;;;5087096;28;20305;-75
2022/11/13 09:24:46;;;;;;;;;;;14.40;99.90;;;;;;5086047;28;20411;-75
2022/11/13 09:27:31;;;;;;;;;;;14.60;99.90;;;;;;5084096;28;19957;-75
2022/11/13 09:30:16;;;;;;;;;;;14.90;99.90;;;;;;5091651;28;19924;-74
2022/11/13 09:33:01;;;;;;;;;;;14.90;99.90;;;;;;5083670;28;19924;-74
2022/11/13 09:35:47;;;;;;;;;;;15.10;99.90;;;;;;5082367;28;19931;-75
2022/11/13 09:38:32;;;;;;;;;;;15.30;99.90;;;;;;5080973;28;19930;-75
2022/11/13 09:41:23;;;;;;;;;;;15.20;99.90;;;;;;5080550;28;20613;-75
2022/11/13 09:44:14;;;;;;;;;;;15.40;99.90;;;;;;5076368;28;19943;-75
2022/11/13 09:47:19;;;;;;;;;;;15.70;99.90;;;;;;5081817;28;19957;-75
2022/11/13 09:50:09;;;;;;;;;;;15.80;99.90;;;;;;5090258;28;20080;-75
2022/11/13 09:52:55;;;;;;;;;;;15.90;99.90;;;;;;5086533;28;19939;-75
2022/11/13 09:55:55;;;;;;;;;;;16.00;99.90;;;;;;5072463;28;19931;-74
2022/11/13 09:58:47;;;;;;;;;;;16.20;99.90;;;;;;5070279;28;20396;-75
2022/11/13 10:01:52;;;;;;;;;;;16.00;99.90;;;;;;5087190;28;20080;-75
2022/11/13 10:04:56;;;;;;;;;;;15.30;99.90;;;;;;5079650;28;19931;-75
2022/11/13 10:07:53;;;;;;;;;;;15.10;99.90;;;;;;5085058;28;19930;-74
2022/11/13 10:10:57;;;;;;;;;;;14.70;99.90;;;;;;5091550;28;20451;-74
2022/11/13 10:13:47;;;;;;;;;;;14.90;99.90;;;;;;5089884;28;20506;-75
2022/11/13 10:16:52;;;;;;;;;;;14.50;99.90;;;;;;5093893;28;19931;-75
2022/11/13 10:19:41;;;;;;;;;;;14.60;99.90;;;;;;5088495;28;20004;-76
2022/11/13 10:22:26;;;;;;;;;;;14.60;99.90;;;;;;5092142;28;20045;-75
2022/11/13 10:25:20;;;;;;;;;;;14.90;99.90;;;;;;5091293;28;19931;-75
2022/11/13 10:28:18;;;;;;;;;;;15.00;99.90;;;;;;5081561;28;19951;-75
2022/11/13 10:31:23;;;;;;;;;;;14.90;99.90;;;;;;5092015;28;20036;-75
2022/11/13 10:34:08;;;;;;;;;;;14.70;99.90;;;;;;5089876;28;20008;-75
2022/11/13 10:37:13;;;;;;;;;;;14.70;99.90;;;;;;5091731;28;19930;-74
2022/11/13 10:39:58;;;;;;;;;;;14.90;99.90;;;;;;5084720;28;20541;-75
2022/11/13 10:42:43;;;;;;;;;;;14.80;99.90;;;;;;5087320;28;19930;-75
2022/11/13 10:45:28;;;;;;;;;;;15.00;99.90;;;;;;5083026;28;19989;-74
2022/11/13 10:48:34;;;;;;;;;;;15.20;99.90;;;;;;5083928;28;20068;-74
2022/11/13 10:51:27;;;;;;;;;;;15.30;99.90;;;;;;5082934;28;20114;-74
2022/11/13 10:54:19;;;;;;;;;;;15.40;99.90;;;;;;5090396;28;19939;-75
2022/11/13 10:57:13;;;;;;;;;;;15.40;99.90;;;;;;5087530;28;19931;-73
2022/11/13 10:59:58;;;;;;;;;;;15.20;99.90;;;;;;5090371;28;19939;-74
2022/11/13 11:02:47;;;;;;;;;;;15.30;99.90;;;;;;5079981;28;20028;-76
2022/11/13 11:05:34;;;;;;;;;;;15.30;99.90;;;;;;5091358;28;20014;-74
2022/11/13 11:08:22;;;;;;;;;;;15.10;99.90;;;;;;5082454;28;19947;-72
2022/11/13 11:14:20;;;;;;;;;;;15.40;99.90;;;;;;5091260;28;19924;-71
2022/11/13 11:17:07;;;;;;;;;;;15.70;99.90;;;;;;5070211;28;20056;-72
2022/11/13 11:19:59;;;;;;;;;;;15.80;99.90;;;;;;5082966;28;20005;-72
2022/11/13 11:22:46;;;;;;;;;;;15.80;99.90;;;;;;5084232;28;19935;-72
2022/11/13 11:25:37;;;;;;;;;;;15.80;99.90;;;;;;5085224;28;20045;-72
2022/11/13 11:28:22;;;;;;;;;;;15.90;99.90;;;;;;5086072;28;19930;-71
2022/11/13 11:31:11;;;;;;;;;;;15.90;99.90;;;;;;5083444;28;19985;-72
2022/11/13 11:34:15;;;;;;;;;;;16.00;99.90;;;;;;5079510;28;20446;-71
2022/11/13 11:37:00;;;;;;;;;;;16.00;99.90;;;;;;5088484;28;20423;-72
2022/11/13 11:39:47;;;;;;;;;;;16.20;99.90;;;;;;5080625;28;19966;-72
2022/11/13 11:42:32;;;;;;;;;;;16.10;99.90;;;;;;5084577;28;19935;-72
2022/11/13 11:45:20;;;;;;;;;;;16.10;99.90;;;;;;5084167;28;19935;-72
2022/11/13 11:48:16;;;;;;;;;;;16.10;99.90;;;;;;5076808;28;20521;-71
2022/11/13 11:51:24;;;;;;;;;;;16.00;99.90;;;;;;5075210;28;19951;-71
2022/11/13 11:54:27;;;;;;;;;;;16.10;99.90;;;;;;5087814;28;19934;-72
2022/11/13 11:57:32;;;;;;;;;;;16.20;99.90;;;;;;5089325;28;19931;-72
2022/11/13 12:00:18;;;;;;;;;;;16.10;99.90;;;;;;5069345;28;19980;-73
2022/11/13 12:03:03;;;;;;;;;;;15.90;99.90;;;;;;5023253;28;20653;-73
2022/11/13 12:06:31;;;;;;;29.63;27.83;;;15.60;99.90;;;;;;4994764;27;21063;-72
2022/11/13 12:09:45;;;;;;;28.20;26.50;;;15.60;99.90;;;;;;4968218;28;20099;-72
2022/11/13 12:13:05;;;;;;;29.77;27.98;;;15.50;99.90;;;;;;5018380;28;20499;-72
2022/11/13 12:16:14;;;;;;;27.73;26.13;;;15.70;99.90;;;;;;5008011;28;20630;-73
2022/11/13 12:19:21;;;;;;;28.30;26.60;;;15.90;99.90;;;;;;5018675;28;21517;-73
2022/11/13 12:22:13;;;;;;;27.73;26.13;;;15.90;99.90;;;;;;5015246;28;20044;-73
2022/11/13 12:25:05;;;;;;;28.33;26.67;;;16.00;99.90;;;;;;5014138;28;20060;-72
2022/11/13 12:27:59;;;;;;;28.75;27.05;;;16.30;99.90;;;;;;5008269;28;20060;-74
2022/11/13 12:31:09;;;;;;;27.45;25.85;;;16.40;99.50;;;;;;5006876;28;20119;-73
2022/11/13 12:34:12;;;;;;;31.10;29.38;;;16.10;99.90;;;;;;5015668;28;20549;-73
2022/11/13 12:36:58;;;;;;;29.58;27.95;;;15.80;99.90;;;;;;5015403;28;20055;-71
2022/11/13 12:39:51;;;;;;;27.65;26.15;;;15.70;99.90;;;;;;5007616;28;20069;-72
2022/11/13 12:42:50;;;;;;;23.67;22.27;;;15.90;99.90;;;;;;5017116;28;20188;-73
2022/11/13 12:45:35;;;;;;;29.08;27.35;;;15.90;99.90;;;;;;5019432;28;20079;-71
2022/11/13 12:48:32;;;;;;;29.25;27.65;;;15.90;99.90;;;;;;5019330;28;20057;-73
2022/11/13 12:51:17;;;;;;;29.13;27.52;;;15.70;99.90;;;;;;5019931;28;20052;-72
2022/11/13 12:54:03;;;;;;;28.60;27.10;;;15.60;99.90;;;;;;5011958;28;20763;-72
2022/11/13 12:56:48;;;;;;;25.17;23.77;;;15.70;99.90;;;;;;5017771;28;20056;-73
2022/11/13 12:59:46;;;;;;;28.80;27.20;;;15.70;99.90;;;;;;5022821;28;20151;-73
2022/11/13 13:03:17;;;;;;;29.58;27.98;;;15.60;99.90;;;;;;5017186;28;20052;-72
2022/11/13 13:06:23;;;;;;;29.55;28.08;;;15.70;99.90;;;;;;5009945;28;20042;-71
2022/11/13 13:09:14;;;;;;;;;;;15.70;99.90;;;;;;5020076;28;20715;-72
2022/11/13 13:12:26;;;;;;;27.65;26.25;;;15.70;99.90;;;;;;5016426;28;20034;-71
2022/11/13 13:15:35;;;;;;;28.65;27.15;;;15.60;99.90;;;;;;5015202;28;20060;-73
2022/11/13 13:18:20;;;;;;;27.38;25.98;;;15.50;99.90;;;;;;5010885;28;20057;-72
2022/11/13 13:21:17;;;;;;;27.90;26.50;;;15.50;99.90;;;;;;4998478;28;20104;-73
2022/11/13 13:24:08;;;;;;;28.20;26.80;;;15.60;99.90;;;;;;5013827;28;20057;-72
2022/11/13 13:26:54;;;;;;;26.30;24.90;;;15.40;99.90;;;;;;5004905;28;20099;-73
2022/11/13 13:29:39;;;;;;;;;;;15.30;99.90;;;;;;5015949;28;20095;-72
2022/11/13 13:32:48;;;;;;;27.13;25.63;;;15.20;99.90;;;;;;5002067;28;20079;-72
2022/11/13 13:35:48;;;;;;;28.83;27.33;;;15.00;99.90;;;;;;5016412;28;20134;-73
2022/11/13 13:38:40;;;;;;;28.10;26.58;;;15.00;99.90;;;;;;5005206;28;20051;-72
2022/11/13 13:41:40;;;;;;;27.85;26.23;;;15.10;99.90;;;;;;5002675;28;20049;-73
2022/11/13 13:44:56;;;;;;;28.40;26.90;;;14.90;99.90;;;;;;5007864;28;20514;-72
2022/11/13 13:47:50;;;;;;;28.27;26.67;;;15.00;99.90;;;;;;4996058;28;20045;-73
2022/11/13 13:50:41;;;;;;;27.10;25.70;;;14.90;99.90;;;;;;5002873;28;20179;-71
2022/11/13 13:53:31;;;;;;;27.75;26.25;;;14.80;99.90;;;;;;5006415;28;20176;-73
2022/11/13 13:56:19;;;;;;;28.23;26.73;;;14.60;99.90;;;;;;5005738;28;20045;-73
2022/11/13 13:59:12;;;;;;;27.17;25.77;;;14.60;99.90;;;;;;5005491;28;20052;-73
2022/11/13 14:01:59;;;;;;;27.42;25.85;;;14.60;99.90;;;;;;5008226;28;20104;-72
2022/11/13 14:04:47;;;;;;;28.45;26.95;;;14.60;99.90;;;;;;5004269;28;20052;-73
2022/11/13 14:07:34;;;;;;;28.63;27.02;;;14.60;99.90;;;;;;5003296;28;20598;-71
2022/11/13 14:10:25;;;;;;;31.25;29.38;;;14.60;99.90;;;;;;4997874;28;20041;-70
2022/11/13 14:13:20;;;;;;;30.50;28.70;;;14.50;99.90;;;;;;5000851;28;20057;-70
2022/11/13 14:16:06;;;;;;;30.60;28.67;;;14.50;99.90;;;;;;5004459;28;20100;-73
2022/11/13 14:19:02;;;;;;;30.50;28.60;;;14.50;99.90;;;;;;5001852;28;20164;-73
2022/11/13 14:21:53;;;;;;;30.27;28.48;;;14.40;99.90;;;;;;4999215;28;20052;-74
2022/11/13 14:24:49;;;;;;;29.38;27.77;;;14.40;99.90;;;;;;4999062;28;20341;-70
2022/11/13 14:27:34;;;;;;;32.30;30.08;;;14.40;99.90;;;;;;5023859;28;20082;-72
2022/11/13 14:30:30;;;;;;;28.50;26.77;;;14.30;99.90;;;;;;5004180;28;20053;-72
2022/11/13 14:33:20;;;;;;;27.33;25.93;;;14.30;99.90;;;;;;5001454;28;20068;-69
2022/11/13 14:36:06;;;;;;;27.85;26.35;;;14.30;99.90;;;;;;5013850;28;20339;-71
2022/11/13 14:38:52;;;;;;;27.30;25.90;;;14.10;99.90;;;;;;4999852;28;20060;-72
2022/11/13 14:41:40;;;;;;;28.35;26.75;;;14.10;99.90;;;;;;5001214;28;20049;-72
2022/11/13 14:44:29;;;;;;;28.25;26.63;;;14.10;99.90;;;;;;5003700;28;20757;-73
2022/11/13 14:47:36;;;;;;;27.33;25.80;;;14.10;99.90;;;;;;4999891;28;20045;-73
2022/11/13 14:50:28;;;;;;;27.25;25.75;;;13.90;99.90;;;;;;5000729;28;20060;-71
2022/11/13 14:53:25;;;;;;;25.92;24.42;;;13.90;99.90;;;;;;5000847;28;20068;-72
2022/11/13 14:56:11;;;;;;;26.13;24.65;;;13.70;99.90;;;;;;5013728;28;20092;-72
2022/11/13 14:59:08;;;;;;;24.98;23.63;;;13.70;99.90;;;;;;4997113;28;20061;-72
2022/11/13 15:01:55;;;;;;;26.35;24.85;;;13.70;99.90;;;;;;4994012;28;20372;-73
2022/11/13 15:04:40;;;;;;;31.42;29.83;;;13.70;99.90;;;;;;4999133;28;20057;-71
2022/11/13 15:07:29;;;;;;;30.95;29.45;;;13.70;99.90;;;;;;4994711;28;20093;-72
2022/11/13 15:10:20;;;;;;;28.75;27.25;;;13.60;99.90;;;;;;5000723;28;20099;-71
2022/11/13 15:13:12;;;;;;;28.80;27.30;;;13.60;99.90;;;;;;5000347;28;20119;-72
2022/11/13 15:15:57;;;;;;;27.77;26.20;;;13.60;99.90;;;;;;5001381;28;20438;-72
2022/11/13 15:18:46;;;;;;;;;;;13.50;99.90;;;;;;5015813;28;20060;-70
2022/11/13 15:21:31;;;;;;;25.67;24.27;;;13.40;99.90;;;;;;5001613;28;19928;-72
2022/11/13 15:24:17;;;;;;;25.35;23.95;;;13.30;99.90;;;;;;5000544;28;20151;-72
2022/11/13 15:27:04;;;;;;;26.33;24.83;;;13.20;99.90;;;;;;5001331;28;20053;-71
2022/11/13 15:29:49;;;;;;;27.60;26.10;;;13.10;99.90;;;;;;5001519;28;20071;-72
2022/11/13 15:32:35;;;;;;;27.85;25.55;;;13.00;99.90;;;;;;5000636;28;20044;-73
2022/11/13 15:35:20;;;;;;;;;;;12.80;99.90;;;;;;5003232;28;20430;-72
2022/11/13 15:38:05;;;;;;;21.33;19.92;;;12.80;99.90;;;;;;4999347;28;19999;-73
2022/11/13 15:40:50;;;;;;;51.47;42.17;;;12.70;99.90;;;;;;4993179;28;20058;-69
2022/11/13 15:43:36;;;;;;;35.05;31.58;;;12.40;99.90;;;;;;4995948;28;20080;-73
2022/11/13 15:46:23;;;;;;;51.33;45.55;;;12.40;99.90;;;;;;5001145;28;20181;-71
2022/11/13 15:49:08;;;;;;;22.30;20.85;;;12.20;99.90;;;;;;4999466;28;20121;-71
2022/11/13 15:51:54;;;;;;;29.17;27.38;;;12.00;99.90;;;;;;4999304;28;20127;-71
2022/11/13 15:54:39;;;;;;;27.35;25.55;;;11.80;99.90;;;;;;5001495;28;20068;-70
2022/11/13 15:57:26;;;;;;;45.22;40.53;;;11.70;99.90;;;;;;4999481;28;20139;-72
2022/11/13 16:00:14;;;;;;;41.78;34.78;;;11.70;99.90;;;;;;5003740;28;20049;-71